Time;durP1;ratioP1;P1;durP2;ratioP2;P2;SDS_P1;SDS_P2;PMS_P1;PMS_P2;Temp;Humidity;BMP_temperature;BMP_pressure;BME280_temperature;BME280_humidity;BME280_pressure;Samples;Min_cycle;Max_cycle;Signal;HPM_P1;HPM_P2
2023/03/06 00:00:03;;;;;;;11.30;7.50;;;;;;;3.62;47.74;98375.94;5108724;28;20040;-73
2023/03/06 00:02:32;;;;;;;9.32;6.90;;;;;;;4.37;47.71;98481.06;5108708;28;20334;-73
2023/03/06 00:04:58;;;;;;;9.57;6.88;;;;;;;4.34;47.59;98486.44;5108661;28;20115;-73
2023/03/06 00:07:25;;;;;;;9.90;7.22;;;;;;;2.85;47.54;98234.28;5108397;28;20059;-73
2023/03/06 00:09:52;;;;;;;10.82;6.90;;;;;;;4.32;47.52;98489.13;5106998;28;20057;-73
2023/03/06 00:12:19;;;;;;;10.73;8.07;;;;;;;3.90;47.61;98418.38;5108139;28;20228;-73
2023/03/06 00:14:45;;;;;;;9.73;6.30;;;;;;;4.33;47.63;98487.34;5108045;28;20089;-73
2023/03/06 00:17:12;;;;;;;8.95;5.80;;;;;;;4.23;47.45;98467.69;5107595;28;20040;-73
2023/03/06 00:19:40;;;;;;;10.18;6.47;;;;;;;3.23;47.35;98290.25;5106858;28;20040;-72
2023/03/06 00:22:07;;;;;;;11.15;7.25;;;;;;;4.33;47.41;98484.72;5107008;28;20043;-73
2023/03/06 00:24:34;;;;;;;8.68;6.68;;;;;;;4.32;47.26;98475.16;5106924;28;20207;-73
2023/03/06 00:27:00;;;;;;;9.98;6.50;;;;;;;4.31;47.34;98481.31;5107798;28;20051;-73
2023/03/06 00:29:27;;;;;;;10.13;5.72;;;;;;;4.30;47.31;98479.63;5107711;28;20040;-74
2023/03/06 00:31:54;;;;;;;11.40;6.03;;;;;;;4.27;47.11;98466.63;5107405;28;20144;-73
2023/03/06 00:34:20;;;;;;;8.45;5.75;;;;;;;4.26;47.00;98467.56;5106832;28;20051;-73
2023/03/06 00:36:49;;;;;;;8.25;5.95;;;;;;;4.17;47.00;98453.03;5107638;28;20187;-73
2023/03/06 00:39:15;;;;;;;7.63;5.82;;;;;;;4.26;47.06;98464.94;5107284;28;20054;-73
2023/03/06 00:41:42;;;;;;;7.55;6.00;;;;;;;4.25;46.94;98471.94;5107298;28;20058;-72
2023/03/06 00:44:09;;;;;;;7.63;5.63;;;;;;;4.26;46.75;98470.19;5107223;28;20031;-73
2023/03/06 00:46:36;;;;;;;8.48;5.63;;;;;;;4.24;46.85;98457.13;5107360;28;20044;-73
2023/03/06 00:49:03;;;;;;;9.10;5.78;;;;;;;4.24;46.80;98454.50;5107247;28;20089;-73
2023/03/06 00:51:29;;;;;;;13.35;5.53;;;;;;;4.24;46.65;98464.16;5107305;28;20044;-73
2023/03/06 00:53:57;;;;;;;8.25;5.32;;;;;;;4.23;46.68;98457.19;5106945;28;20251;-74
2023/03/06 00:56:24;;;;;;;7.30;5.00;;;;;;;4.06;46.82;98435.16;5106413;28;20040;-73
2023/03/06 00:58:51;;;;;;;6.88;4.55;;;;;;;4.23;46.73;98468.53;5107082;28;20032;-73
2023/03/06 01:01:18;;;;;;;6.78;5.43;;;;;;;3.81;46.47;98398.66;5106617;28;20040;-73
2023/03/06 01:03:44;;;;;;;9.32;4.68;;;;;;;4.18;46.45;98460.00;5107075;28;20047;-72
2023/03/06 01:06:11;;;;;;;8.63;5.97;;;;;;;4.17;46.30;98459.13;5106847;28;20040;-73
2023/03/06 01:08:38;;;;;;;6.85;5.00;;;;;;;4.17;46.08;98451.28;5107248;28;20036;-73
2023/03/06 01:11:06;;;;;;;8.13;4.32;;;;;;;4.16;45.88;98449.56;5106525;28;20102;-73
2023/03/06 01:13:33;;;;;;;7.15;4.95;;;;;;;4.13;46.20;98448.84;5105785;28;20040;-73
2023/03/06 01:16:07;;;;;;;7.22;4.90;;;;;;;4.12;45.72;98453.25;5106549;28;20046;-73
2023/03/06 01:18:34;;;;;;;8.02;4.65;;;;;;;4.11;46.00;98448.91;5105761;28;20127;-72
2023/03/06 01:21:00;;;;;;;7.32;4.38;;;;;;;4.10;46.15;98436.72;5107104;28;20288;-73
2023/03/06 01:23:27;;;;;;;6.82;4.50;;;;;;;4.11;46.14;98442.81;5107047;28;20035;-73
2023/03/06 01:25:54;;;;;;;7.13;4.47;;;;;;;4.12;46.16;98434.88;5105667;28;20050;-73
2023/03/06 01:28:23;;;;;;;5.95;4.40;;;;;;;4.12;46.04;98432.25;5106491;28;20036;-73
2023/03/06 01:30:49;;;;;;;6.50;4.88;;;;;;;4.12;46.08;98437.50;5106313;28;20094;-73
2023/03/06 01:33:17;;;;;;;6.25;4.38;;;;;;;4.10;46.14;98428.84;5105393;28;20044;-73
2023/03/06 01:35:43;;;;;;;6.28;4.22;;;;;;;4.11;45.98;98434.94;5106210;28;20036;-72
2023/03/06 01:38:11;;;;;;;5.85;4.25;;;;;;;4.09;45.95;98424.53;5106196;28;20036;-72
2023/03/06 01:40:38;;;;;;;5.38;4.13;;;;;;;4.10;45.87;98423.59;5106094;28;20048;-72
2023/03/06 01:43:28;;;;;;;7.70;4.25;;;;;;;4.11;44.79;98417.44;5106667;28;20046;-73
2023/03/06 01:46:24;;;;;;;5.88;4.25;;;;;;;4.09;44.77;98414.03;5106616;28;20048;-73
2023/03/06 01:48:54;;;;;;;8.20;4.80;;;;;;;3.10;45.65;98255.91;5105195;28;20203;-72
2023/03/06 01:51:22;;;;;;;6.38;4.35;;;;;;;4.06;45.77;98410.69;5105908;28;20040;-73
2023/03/06 01:53:51;;;;;;;7.63;4.75;;;;;;;4.04;45.58;98416.00;5105763;28;20036;-73
2023/03/06 01:56:18;;;;;;;8.32;4.45;;;;;;;4.04;45.62;98407.28;5105603;28;20048;-72
2023/03/06 01:58:48;;;;;;;7.97;4.70;;;;;;;4.02;45.57;98404.75;5105892;28;20050;-72
2023/03/06 02:01:16;;;;;;;5.30;3.97;;;;;;;3.84;45.66;98392.44;5106215;28;20051;-73
2023/03/06 02:03:45;;;;;;;6.15;3.85;;;;;;;4.03;45.68;98405.59;5105812;28;20032;-73
2023/03/06 02:06:12;;;;;;;5.45;3.92;;;;;;;4.02;45.58;98404.75;5106391;28;20039;-72
2023/03/06 02:08:39;;;;;;;6.82;3.88;;;;;;;3.72;45.14;98351.88;5105697;28;20046;-73
2023/03/06 02:11:12;;;;;;;5.38;3.90;;;;;;;4.01;45.27;98403.03;5105616;28;20141;-73
2023/03/06 02:13:40;;;;;;;6.32;3.78;;;;;;;4.02;45.56;98402.13;5106221;28;20040;-72
2023/03/06 02:16:10;;;;;;;6.40;3.88;;;;;;;4.00;45.18;98393.47;5104946;28;20040;-72
2023/03/06 02:18:39;;;;;;;6.85;4.10;;;;;;;3.97;45.51;98387.50;5105704;28;20051;-72
2023/03/06 02:21:09;;;;;;;4.72;3.45;;;;;;;4.00;45.12;98392.63;5104834;28;20070;-72
2023/03/06 02:23:45;;;;;;;7.32;4.55;;;;;;;4.00;45.25;98390.00;5105888;28;20078;-72
2023/03/06 02:26:15;;;;;;;6.38;4.50;;;;;;;2.81;45.35;98186.47;5105283;28;20039;-72
2023/03/06 02:28:42;;;;;;;6.38;4.30;;;;;;;4.00;45.41;98384.75;5104746;28;20062;-72
2023/03/06 02:31:19;;;;;;;6.95;4.60;;;;;;;4.02;45.39;98380.28;5105851;28;20050;-72
2023/03/06 02:33:46;;;;;;;7.28;4.38;;;;;;;4.00;45.32;98380.34;5104642;28;20044;-72
2023/03/06 02:36:15;;;;;;;7.25;4.28;;;;;;;3.98;45.33;98382.19;5105489;28;20044;-72
2023/03/06 02:38:47;;;;;;;6.53;4.65;;;;;;;3.95;45.05;98365.75;5105738;28;20048;-72
2023/03/06 02:41:16;;;;;;;6.78;4.22;;;;;;;3.26;45.24;98250.84;5105487;28;20050;-72
2023/03/06 02:43:45;;;;;;;6.95;4.20;;;;;;;3.35;45.18;98310.69;5106076;28;20089;-72
2023/03/06 02:46:12;;;;;;;6.05;4.32;;;;;;;3.99;45.35;98369.94;5108934;28;20052;-72
2023/03/06 02:48:39;;;;;;;6.75;3.95;;;;;;;3.97;45.13;98369.16;5108622;28;20050;-72
2023/03/06 02:51:06;;;;;;;4.88;3.65;;;;;;;3.98;45.10;98358.59;5110214;28;20146;-73
2023/03/06 02:53:33;;;;;;;6.88;3.85;;;;;;;3.96;45.18;98363.06;5109623;28;20044;-73
2023/03/06 02:56:00;;;;;;;6.05;4.20;;;;;;;3.84;45.17;98334.78;5109159;28;20063;-73
2023/03/06 02:58:28;;;;;;;5.93;3.88;;;;;;;3.97;45.16;98364.75;5109452;28;20235;-73
2023/03/06 03:00:54;;;;;;;5.72;4.00;;;;;;;3.96;45.07;98357.81;5109657;28;20227;-73
2023/03/06 03:03:21;;;;;;;5.55;4.15;;;;;;;3.98;45.16;98363.00;5109352;28;20097;-73
2023/03/06 03:05:48;;;;;;;5.22;3.50;;;;;;;3.97;45.11;98356.03;5109657;28;20058;-73
2023/03/06 03:08:15;;;;;;;6.03;4.38;;;;;;;3.96;45.19;98356.97;5108196;28;20040;-73
2023/03/06 03:10:41;;;;;;;5.28;3.80;;;;;;;3.96;45.09;98357.81;5109728;28;20165;-73
2023/03/06 03:13:08;;;;;;;6.78;4.15;;;;;;;3.97;44.90;98353.44;5109249;28;20051;-73
2023/03/06 03:15:36;;;;;;;5.90;4.70;;;;;;;3.95;45.03;98357.88;5109454;28;20039;-73
2023/03/06 03:18:03;;;;;;;5.80;4.20;;;;;;;3.95;44.96;98358.72;5109453;28;20082;-73
2023/03/06 03:20:30;;;;;;;5.45;3.85;;;;;;;3.95;44.89;98345.63;5108820;28;20066;-73
2023/03/06 03:22:57;;;;;;;6.82;4.88;;;;;;;3.94;44.95;98350.94;5108764;28;20044;-73
2023/03/06 03:25:25;;;;;;;6.15;4.68;;;;;;;3.93;44.95;98344.84;5109295;28;20067;-73
2023/03/06 03:27:52;;;;;;;5.45;4.00;;;;;;;3.92;45.01;98337.06;5108517;28;20047;-73
2023/03/06 03:30:19;;;;;;;5.63;3.90;;;;;;;3.94;45.09;98335.22;5107749;28;20036;-73
2023/03/06 03:32:47;;;;;;;8.65;3.90;;;;;;;3.93;45.01;98339.59;5107766;28;20040;-73
2023/03/06 03:35:14;;;;;;;5.80;4.10;;;;;;;2.45;45.08;98086.84;5108982;28;20048;-73
2023/03/06 03:37:41;;;;;;;6.45;3.92;;;;;;;3.94;44.97;98333.44;5108617;28;20062;-73
2023/03/06 03:40:09;;;;;;;4.50;3.50;;;;;;;3.94;45.12;98322.09;5108914;28;20036;-73
2023/03/06 03:42:36;;;;;;;8.35;4.57;;;;;;;3.93;44.94;98323.88;5108955;28;20048;-73
2023/03/06 03:45:02;;;;;;;5.72;3.80;;;;;;;3.93;44.97;98321.25;5108877;28;20069;-72
2023/03/06 03:47:30;;;;;;;5.90;4.05;;;;;;;3.92;45.32;98319.56;5108615;28;20192;-73
2023/03/06 03:49:58;;;;;;;6.00;4.20;;;;;;;3.93;45.03;98315.16;5108181;28;20251;-73
2023/03/06 03:52:25;;;;;;;6.00;3.85;;;;;;;3.68;44.74;98273.47;5107958;28;20043;-72
2023/03/06 03:54:51;;;;;;;5.22;3.92;;;;;;;3.89;45.03;98311.81;5108164;28;20204;-72
2023/03/06 03:57:18;;;;;;;7.03;4.15;;;;;;;3.90;44.92;98307.44;5107376;28;20191;-72
2023/03/06 03:59:46;;;;;;;5.00;3.47;;;;;;;3.89;44.83;98306.59;5108362;28;20244;-72
2023/03/06 04:02:13;;;;;;;4.65;3.38;;;;;;;3.89;44.88;98306.59;5108634;28;20048;-72
2023/03/06 04:04:40;;;;;;;4.55;3.28;;;;;;;3.68;44.86;98270.84;5107579;28;20040;-73
2023/03/06 04:07:09;;;;;;;6.32;3.85;;;;;;;3.87;44.77;98297.94;5108438;28;20036;-73
2023/03/06 04:09:38;;;;;;;5.70;4.10;;;;;;;3.84;44.87;98305.94;5107911;28;20204;-72
2023/03/06 04:12:05;;;;;;;5.40;4.18;;;;;;;3.81;44.95;98300.81;5108138;28;20036;-72
2023/03/06 04:14:32;;;;;;;4.90;3.70;;;;;;;3.80;44.83;98296.50;5108338;28;20039;-72
2023/03/06 04:16:59;;;;;;;6.72;3.72;;;;;;;3.59;44.92;98266.88;5107176;28;20290;-73
2023/03/06 04:19:25;;;;;;;5.72;4.22;;;;;;;3.77;45.05;98294.88;5107159;28;20066;-72
2023/03/06 04:21:52;;;;;;;5.75;4.05;;;;;;;3.78;44.89;98303.59;5107686;28;20038;-72
2023/03/06 04:24:20;;;;;;;10.68;4.28;;;;;;;3.77;44.74;98301.88;5106803;28;20051;-73
2023/03/06 04:26:47;;;;;;;5.78;3.88;;;;;;;3.75;44.98;98294.09;5106637;28;20036;-73
2023/03/06 04:29:14;;;;;;;5.90;3.97;;;;;;;3.75;44.98;98295.88;5106952;28;20040;-73
2023/03/06 04:31:41;;;;;;;7.00;4.45;;;;;;;3.74;45.05;98296.78;5107416;28;20055;-73
2023/03/06 04:34:08;;;;;;;4.88;3.47;;;;;;;3.36;44.90;98231.22;5106566;28;20174;-72
2023/03/06 04:36:35;;;;;;;7.15;4.88;;;;;;;3.73;44.88;98290.69;5107733;28;20289;-73
2023/03/06 04:39:02;;;;;;;5.63;4.03;;;;;;;3.72;45.07;98290.75;5107689;28;20036;-73
2023/03/06 04:41:30;;;;;;;6.28;4.25;;;;;;;3.71;44.95;98286.44;5106590;28;20062;-73
2023/03/06 04:43:57;;;;;;;7.00;4.30;;;;;;;3.71;44.75;98286.44;5107375;28;20039;-73
2023/03/06 04:46:24;;;;;;;5.55;3.63;;;;;;;3.69;45.16;98277.78;5107358;28;20052;-73
2023/03/06 04:48:51;;;;;;;7.00;4.53;;;;;;;3.41;45.10;98241.47;5107167;28;20044;-72
2023/03/06 04:51:17;;;;;;;5.88;3.88;;;;;;;2.96;45.04;98169.25;5107572;28;20040;-72
2023/03/06 04:53:44;;;;;;;6.50;4.20;;;;;;;3.65;45.13;98271.84;5106051;28;20044;-73
2023/03/06 04:56:11;;;;;;;6.82;4.70;;;;;;;3.65;45.23;98271.84;5107577;28;20058;-73
2023/03/06 04:58:39;;;;;;;7.88;4.65;;;;;;;3.66;45.15;98268.28;5089492;28;20040;-73
2023/03/06 05:01:06;;;;;;;8.82;4.45;;;;;;;3.66;45.13;98272.69;5106868;28;20107;-72
2023/03/06 05:03:33;;;;;;;6.05;4.15;;;;;;;3.66;45.22;98260.44;5106838;28;20040;-73
2023/03/06 05:05:59;;;;;;;7.40;5.18;;;;;;;3.64;45.08;98261.41;5105956;28;20040;-73
2023/03/06 05:08:26;;;;;;;7.50;4.30;;;;;;;3.65;45.05;98255.25;5106882;28;20048;-73
2023/03/06 05:10:55;;;;;;;7.05;4.40;;;;;;;3.66;45.27;98262.19;5105837;28;20044;-73
2023/03/06 05:13:22;;;;;;;13.50;6.55;;;;;;;3.61;45.19;98251.06;5107092;28;20295;-73
2023/03/06 05:15:50;;;;;;;7.22;4.85;;;;;;;3.25;45.36;98188.06;5107042;28;20299;-72
2023/03/06 05:18:18;;;;;;;7.07;4.63;;;;;;;3.64;45.35;98256.19;5106839;28;20350;-72
2023/03/06 05:20:45;;;;;;;6.82;4.65;;;;;;;3.65;45.37;98252.66;5107169;28;20040;-73
2023/03/06 05:23:12;;;;;;;8.15;5.25;;;;;;;3.65;45.41;98248.25;5105671;28;20062;-73
2023/03/06 05:25:40;;;;;;;6.47;4.45;;;;;;;3.67;45.19;98258.66;5106692;28;20044;-74
2023/03/06 05:28:08;;;;;;;8.57;5.40;;;;;;;3.68;45.33;98255.13;5106404;28;20040;-73
2023/03/06 05:30:35;;;;;;;7.35;4.93;;;;;;;3.11;45.55;98191.31;5105499;28;20203;-73
2023/03/06 05:33:03;;;;;;;8.15;5.35;;;;;;;3.70;45.47;98255.91;5106385;28;20036;-73
2023/03/06 05:35:30;;;;;;;8.27;5.25;;;;;;;3.70;45.55;98258.53;5106843;28;20044;-73
2023/03/06 05:37:57;;;;;;;11.93;7.13;;;;;;;3.67;45.44;98241.19;5106513;28;20044;-73
2023/03/06 05:40:24;;;;;;;10.07;5.38;;;;;;;3.51;45.64;98220.06;5106130;28;20035;-73
2023/03/06 05:42:51;;;;;;;9.05;5.97;;;;;;;3.73;45.50;98250.53;5106126;28;20288;-73
2023/03/06 05:45:18;;;;;;;8.88;7.07;;;;;;;3.72;45.74;98254.06;5105889;28;20040;-73
2023/03/06 05:47:45;;;;;;;10.30;7.32;;;;;;;3.70;45.78;98251.53;5106067;28;20032;-74
2023/03/06 05:50:13;;;;;;;9.60;6.30;;;;;;;3.46;45.80;98211.53;5106057;28;20094;-73
2023/03/06 05:52:40;;;;;;;9.70;5.90;;;;;;;3.71;45.83;98255.00;5106063;28;20134;-73
2023/03/06 05:55:10;;;;;;;11.18;7.18;;;;;;;3.32;45.70;98179.03;5105623;28;20056;-74
2023/03/06 05:57:37;;;;;;;10.75;7.20;;;;;;;3.71;45.82;98253.22;5105134;28;20052;-73
2023/03/06 06:00:05;;;;;;;11.27;6.30;;;;;;;3.72;45.93;98246.22;5106537;28;20052;-73
2023/03/06 06:02:32;;;;;;;9.35;5.75;;;;;;;3.73;45.83;98251.38;5105865;28;20043;-74
2023/03/06 06:04:58;;;;;;;12.30;6.95;;;;;;;3.49;45.87;98207.94;5106076;28;20203;-73
2023/03/06 06:07:27;;;;;;;10.95;6.35;;;;;;;3.33;45.79;98185.97;5106216;28;20054;-73
2023/03/06 06:09:53;;;;;;;10.38;6.45;;;;;;;3.74;45.97;98257.47;5106347;28;20040;-74
2023/03/06 06:12:20;;;;;;;7.95;5.82;;;;;;;3.75;45.94;98254.78;5106199;28;20044;-74
2023/03/06 06:14:47;;;;;;;9.27;6.38;;;;;;;3.78;45.96;98254.66;5106469;28;20043;-73
2023/03/06 06:17:15;;;;;;;9.30;6.18;;;;;;;3.79;45.94;98258.97;5106073;28;20043;-74
2023/03/06 06:19:42;;;;;;;11.50;6.82;;;;;;;3.17;46.12;98165.69;5104130;28;20304;-74
2023/03/06 06:22:09;;;;;;;15.00;7.53;;;;;;;3.77;46.13;98257.34;5104745;28;20044;-74
2023/03/06 06:24:37;;;;;;;10.45;6.28;;;;;;;3.74;46.20;98254.84;5104759;28;20331;-73
2023/03/06 06:27:05;;;;;;;9.07;6.43;;;;;;;3.72;46.25;98259.31;5105939;28;20052;-73
2023/03/06 06:29:32;;;;;;;10.77;6.05;;;;;;;3.15;46.24;98175.38;5104642;28;20036;-73
2023/03/06 06:32:00;;;;;;;9.45;5.82;;;;;;;3.74;46.26;98253.06;5104501;28;20046;-73
2023/03/06 06:34:29;;;;;;;10.10;6.70;;;;;;;3.78;46.15;98254.66;5104527;28;20086;-73
2023/03/06 06:36:56;;;;;;;11.88;5.97;;;;;;;3.13;46.05;98142.34;5105686;28;20043;-73
2023/03/06 06:39:24;;;;;;;9.30;7.43;;;;;;;3.77;46.19;98252.94;5105898;28;20046;-73
2023/03/06 06:41:54;;;;;;;9.75;7.32;;;;;;;3.77;46.29;98249.47;5105070;28;20051;-73
2023/03/06 06:44:21;;;;;;;10.25;7.13;;;;;;;3.78;46.13;98253.78;5105285;28;20310;-73
2023/03/06 06:46:49;;;;;;;11.27;7.38;;;;;;;2.82;46.16;98106.19;5105471;28;20191;-73
2023/03/06 06:49:16;;;;;;;13.88;7.95;;;;;;;3.19;46.36;98153.41;5105665;28;20044;-73
2023/03/06 06:51:43;;;;;;;10.93;6.57;;;;;;;3.77;46.46;98250.31;5105209;28;20097;-73
2023/03/06 06:54:10;;;;;;;9.80;7.72;;;;;;;3.78;46.37;98253.78;5104995;28;20070;-73
2023/03/06 06:56:38;;;;;;;12.48;8.32;;;;;;;3.78;46.53;98249.41;5105486;28;20303;-73
2023/03/06 06:59:06;;;;;;;12.55;7.65;;;;;;;3.79;46.45;98248.47;5105743;28;20044;-73
2023/03/06 07:01:33;;;;;;;13.82;8.68;;;;;;;3.78;46.51;98236.28;5105824;28;20062;-73
2023/03/06 07:03:59;;;;;;;13.90;7.70;;;;;;;3.79;46.48;98238.00;5105744;28;20296;-73
2023/03/06 07:06:26;;;;;;;13.90;7.90;;;;;;;3.79;46.57;98247.63;5105712;28;20044;-73
2023/03/06 07:08:53;;;;;;;11.55;7.35;;;;;;;3.80;46.58;98238.84;5105094;28;20051;-73
2023/03/06 07:11:20;;;;;;;14.00;7.65;;;;;;;3.60;46.69;98210.06;5105651;28;20050;-73
2023/03/06 07:13:47;;;;;;;15.88;9.32;;;;;;;2.96;46.49;98123.91;5104845;28;20196;-73
2023/03/06 07:16:17;;;;;;;12.90;7.95;;;;;;;3.80;46.76;98249.34;5105427;28;20199;-73
2023/03/06 07:18:44;;;;;;;15.15;8.77;;;;;;;3.83;46.69;98236.09;5105152;28;20227;-73
2023/03/06 07:21:12;;;;;;;13.63;8.13;;;;;;;3.86;46.80;98241.19;5105494;28;20036;-73
2023/03/06 07:23:38;;;;;;;15.10;8.00;;;;;;;2.78;46.67;98055.78;5104828;28;20237;-73
2023/03/06 07:26:05;;;;;;;16.30;10.27;;;;;;;3.91;46.64;98244.44;5105415;28;20047;-73
2023/03/06 07:28:32;;;;;;;14.00;8.52;;;;;;;3.94;46.64;98240.84;5104011;28;20040;-74
2023/03/06 07:30:59;;;;;;;14.75;8.05;;;;;;;3.51;46.55;98170.28;5104722;28;20047;-74
2023/03/06 07:33:28;;;;;;;12.68;7.47;;;;;;;3.72;46.45;98199.03;5108143;28;20101;-74
2023/03/06 07:35:54;;;;;;;13.50;8.25;;;;;;;3.99;46.55;98244.09;5108961;28;20047;-73
2023/03/06 07:38:21;;;;;;;13.23;7.88;;;;;;;3.99;46.61;98234.47;5108254;28;20036;-74
2023/03/06 07:40:50;;;;;;;14.13;8.73;;;;;;;4.01;46.53;98235.25;5108478;28;20199;-74
2023/03/06 07:43:17;;;;;;;12.75;8.20;;;;;;;3.66;46.59;98170.50;5107312;28;20043;-74
2023/03/06 07:45:45;;;;;;;13.68;9.35;;;;;;;3.82;46.77;98198.53;5107368;28;20051;-74
2023/03/06 07:48:13;;;;;;;12.40;8.13;;;;;;;3.82;46.92;98201.16;5107364;28;20074;-73
2023/03/06 07:50:42;;;;;;;15.77;9.23;;;;;;;4.08;46.77;98236.66;5108095;28;20040;-74
2023/03/06 07:53:09;;;;;;;12.25;8.23;;;;;;;4.12;46.72;98232.13;5107175;28;20036;-73
2023/03/06 07:55:39;;;;;;;13.93;8.20;;;;;;;4.16;46.79;98238.91;5107007;28;20044;-74
2023/03/06 07:58:05;;;;;;;13.73;8.77;;;;;;;4.18;46.82;98229.22;5107257;28;20046;-74
2023/03/06 08:00:32;;;;;;;17.77;9.50;;;;;;;4.23;46.96;98236.88;5107130;28;20035;-74
2023/03/06 08:02:59;;;;;;;15.02;9.38;;;;;;;4.25;46.97;98227.19;5108189;28;20044;-74
2023/03/06 08:05:26;;;;;;;14.60;9.38;;;;;;;3.45;47.07;98101.59;5107870;28;20051;-74
2023/03/06 08:07:54;;;;;;;13.85;9.25;;;;;;;4.30;47.30;98225.19;5106862;28;20039;-74
2023/03/06 08:10:21;;;;;;;16.45;9.95;;;;;;;4.33;47.31;98220.66;5106788;28;20050;-74
2023/03/06 08:12:47;;;;;;;12.88;9.07;;;;;;;4.33;47.45;98225.03;5107914;28;20107;-73
2023/03/06 08:15:14;;;;;;;15.10;10.60;;;;;;;3.97;47.49;98154.19;5107788;28;20035;-74
2023/03/06 08:17:41;;;;;;;13.60;10.30;;;;;;;4.38;47.54;98223.03;5108116;28;20054;-74
2023/03/06 08:20:10;;;;;;;14.05;8.88;;;;;;;3.86;47.58;98120.63;5107867;28;20038;-73
2023/03/06 08:22:37;;;;;;;15.02;9.48;;;;;;;4.40;47.73;98215.94;5107555;28;20040;-74
2023/03/06 08:25:07;;;;;;;12.30;9.20;;;;;;;4.43;47.69;98227.16;5107535;28;20048;-74
2023/03/06 08:27:34;;;;;;;14.10;9.32;;;;;;;4.25;47.82;98187.84;5107973;28;20042;-74
2023/03/06 08:30:01;;;;;;;15.00;9.30;;;;;;;4.49;47.70;98216.34;5107500;28;20051;-74
2023/03/06 08:32:28;;;;;;;13.02;8.85;;;;;;;4.53;47.43;98222.31;5106930;28;20044;-74
2023/03/06 08:34:55;;;;;;;10.85;7.70;;;;;;;4.55;47.47;98214.34;5107502;28;20054;-74
2023/03/06 08:37:22;;;;;;;16.05;9.60;;;;;;;4.57;47.43;98215.97;5107602;28;20050;-74
2023/03/06 08:39:49;;;;;;;12.98;8.75;;;;;;;4.58;47.45;98212.44;5106544;28;20054;-74
2023/03/06 08:42:17;;;;;;;14.88;9.85;;;;;;;4.58;47.66;98214.22;5106756;28;20038;-74
2023/03/06 08:44:44;;;;;;;13.48;9.00;;;;;;;0.88;47.45;98110.47;5107569;28;20050;-74
2023/03/06 08:47:11;;;;;;;13.07;8.38;;;;;;;3.50;47.83;98032.38;5107045;28;20048;-74
2023/03/06 08:49:39;;;;;;;15.00;9.45;;;;;;;3.73;47.53;98095.91;5107619;28;20042;-74
2023/03/06 08:52:07;;;;;;;13.30;8.98;;;;;;;4.64;47.38;98217.38;5107462;28;20272;-75
2023/03/06 08:54:35;;;;;;;11.65;8.60;;;;;;;4.69;47.31;98204.03;5107224;28;20062;-73
2023/03/06 08:57:02;;;;;;;12.50;8.48;;;;;;;4.78;47.31;98203.56;5105968;28;20043;-73
2023/03/06 08:59:30;;;;;;;11.75;8.02;;;;;;;4.81;47.32;98208.66;5106743;28;20050;-73
2023/03/06 09:01:57;;;;;;;12.57;8.70;;;;;;;4.84;47.13;98210.28;5107139;28;20038;-73
2023/03/06 09:04:24;;;;;;;14.50;9.32;;;;;;;4.81;47.12;98212.16;5106592;28;20040;-73
2023/03/06 09:06:51;;;;;;;14.45;9.25;;;;;;;4.27;47.25;98113.41;5107086;28;20169;-73
2023/03/06 09:09:18;;;;;;;10.18;8.27;;;;;;;4.90;47.18;98202.13;5106977;28;20353;-73
2023/03/06 09:11:45;;;;;;;15.60;9.52;;;;;;;4.70;47.06;98161.13;5106598;28;20284;-74
2023/03/06 09:14:11;;;;;;;13.60;9.02;;;;;;;5.03;47.03;98206.69;5105616;28;20047;-74
2023/03/06 09:16:40;;;;;;;13.65;9.30;;;;;;;5.06;46.97;98196.03;5105857;28;20052;-74
2023/03/06 09:19:07;;;;;;;12.65;8.88;;;;;;;5.08;46.73;98199.44;5106538;28;20048;-73
2023/03/06 09:21:34;;;;;;;13.40;8.40;;;;;;;5.09;46.89;98187.16;5106999;28;20044;-74
2023/03/06 09:24:00;;;;;;;13.80;9.38;;;;;;;5.16;46.70;98185.91;5106506;28;20074;-74
2023/03/06 09:26:27;;;;;;;14.02;9.02;;;;;;;5.22;46.73;98184.72;5106327;28;20052;-74
2023/03/06 09:28:54;;;;;;;15.93;9.73;;;;;;;5.28;46.44;98189.66;5106893;28;20047;-74
2023/03/06 09:31:21;;;;;;;12.20;9.05;;;;;;;5.30;46.45;98188.66;5105207;28;20046;-74
2023/03/06 09:33:49;;;;;;;12.77;8.77;;;;;;;1.77;46.38;97589.03;5106251;28;20036;-74
2023/03/06 09:36:17;;;;;;;14.85;8.88;;;;;;;5.40;46.40;98181.16;5106172;28;20054;-74
2023/03/06 09:38:46;;;;;;;13.20;8.10;;;;;;;5.51;46.18;98191.09;5089216;28;20036;-74
2023/03/06 09:41:25;;;;;;;19.08;8.98;;;;;;;5.28;46.07;98161.63;5105836;28;20043;-74
2023/03/06 09:43:54;;;;;;;11.25;7.88;;;;;;;5.22;46.11;98151.44;5105105;28;20040;-74
2023/03/06 09:46:29;;;;;;;12.13;8.20;;;;;;;5.42;46.27;98190.66;5106597;28;20179;-74
2023/03/06 09:49:09;;;;;;;;;;;;;;;5.40;46.44;98179.38;5106586;28;20047;-74
2023/03/06 09:51:44;;;;;;;10.93;7.57;;;;;;;5.39;46.32;98180.28;5106547;28;20006;-74
2023/03/06 09:54:13;;;;;;;11.10;7.80;;;;;;;5.20;46.45;98153.28;5104952;28;20328;-74
2023/03/06 09:56:47;;;;;;;13.18;7.97;;;;;;;5.43;46.55;98187.09;5105705;28;20046;-74
2023/03/06 09:59:19;;;;;;;10.32;7.57;;;;;;;5.50;46.61;98195.50;5105979;28;20054;-74
2023/03/06 10:01:55;;;;;;;13.38;8.65;;;;;;;5.00;46.44;98100.97;5105666;28;20055;-74
2023/03/06 10:04:34;;;;;;;12.23;8.50;;;;;;;5.55;46.53;98190.00;5089097;28;20054;-74
2023/03/06 10:07:08;;;;;;;12.93;8.02;;;;;;;3.26;46.24;97860.72;5106261;28;20040;-74
2023/03/06 10:09:42;;;;;;;11.80;8.50;;;;;;;5.58;46.35;98176.69;5105841;28;20078;-74
2023/03/06 10:12:20;;;;;;;10.93;8.07;;;;;;;5.55;46.63;98185.59;5106165;28;20050;-74
2023/03/06 10:14:58;;;;;;;12.93;8.85;;;;;;;5.56;46.44;98191.69;5106321;28;20097;-74
2023/03/06 10:17:30;;;;;;;14.50;9.15;;;;;;;5.53;46.65;98183.97;5106252;28;20055;-74
2023/03/06 10:19:59;;;;;;;12.82;8.27;;;;;;;5.51;46.65;98191.09;5104934;28;20300;-74
2023/03/06 10:22:31;;;;;;;12.57;9.52;;;;;;;5.19;46.50;98143.72;5105698;28;20046;-74
2023/03/06 10:25:05;;;;;;;12.55;8.52;;;;;;;5.47;46.49;98182.53;5105582;28;20048;-74
2023/03/06 10:27:43;;;;;;;11.60;8.00;;;;;;;5.49;46.72;98179.81;5104754;28;20036;-74
2023/03/06 10:30:31;;;;;;;13.50;8.82;;;;;;;5.55;46.75;98174.22;5104635;28;20050;-74
2023/03/06 10:33:00;;;;;;;14.10;9.10;;;;;;;1.96;46.61;97567.25;5105947;28;20093;-74
2023/03/06 10:35:31;;;;;;;13.90;8.10;;;;;;;5.20;46.77;98102.53;5106035;28;20249;-74
2023/03/06 10:38:01;;;;;;;14.80;9.27;;;;;;;5.56;46.96;98161.00;5105768;28;20044;-74
2023/03/06 10:40:35;;;;;;;11.02;8.45;;;;;;;5.58;46.85;98171.44;5105957;28;20054;-74
2023/03/06 10:43:02;;;;;;;14.07;8.57;;;;;;;5.57;46.76;98161.84;5105764;28;20097;-73
2023/03/06 10:45:29;;;;;;;13.45;9.32;;;;;;;5.61;46.88;98151.09;5104897;28;20059;-74
2023/03/06 10:48:10;;;;;;;14.68;9.18;;;;;;;5.59;47.10;98150.31;5106008;28;20111;-74
2023/03/06 10:50:39;;;;;;;16.17;9.70;;;;;;;5.63;46.99;98146.59;5104605;28;20050;-73
2023/03/06 10:53:16;;;;;;;13.38;10.05;;;;;;;5.41;46.89;98099.59;5105126;28;20361;-74
2023/03/06 10:55:51;;;;;;;13.52;8.23;;;;;;;5.70;47.00;98137.44;5087509;28;20094;-74
2023/03/06 10:58:22;;;;;;;14.80;9.05;;;;;;;4.36;46.58;97904.88;5104866;28;20093;-74
2023/03/06 11:01:01;;;;;;;12.43;8.52;;;;;;;5.84;46.28;98134.06;5105666;28;20048;-74
2023/03/06 11:03:28;;;;;;;14.23;9.25;;;;;;;5.85;46.23;98130.50;5105668;28;20032;-74
2023/03/06 11:06:10;;;;;;;12.38;9.23;;;;;;;5.08;46.32;98012.13;5106753;28;20056;-74
2023/03/06 11:08:39;;;;;;;11.10;8.73;;;;;;;5.92;46.44;98126.59;5109189;28;20034;-74
2023/03/06 11:11:07;;;;;;;13.02;9.30;;;;;;;6.00;46.34;98108.59;5108792;28;20122;-74
2023/03/06 11:13:36;;;;;;;12.45;8.85;;;;;;;6.12;46.18;98112.31;5109070;28;20046;-74
2023/03/06 11:16:06;;;;;;;12.30;9.30;;;;;;;6.20;46.08;98125.03;5109407;28;20038;-74
2023/03/06 11:18:39;;;;;;;11.95;9.40;;;;;;;6.11;46.08;98089.59;5108121;28;20044;-73
2023/03/06 11:21:26;;;;;;;12.45;9.20;;;;;;;6.20;46.16;98096.94;5108059;28;20062;-74
2023/03/06 11:23:55;;;;;;;10.77;8.73;;;;;;;6.23;46.06;98090.66;5109023;28;20044;-74
2023/03/06 11:26:33;;;;;;;14.05;9.20;;;;;;;6.24;45.92;98081.84;5091597;28;20180;-74
2023/03/06 11:29:21;;;;;;;12.32;9.40;;;;;;;6.35;45.69;98087.31;5107678;28;20046;-74
2023/03/06 11:31:53;;;;;;;15.30;9.13;;;;;;;6.26;45.75;98078.19;5108129;28;20036;-74
2023/03/06 11:34:28;;;;;;;14.43;9.00;;;;;;;6.19;45.38;98036.53;5108915;28;20040;-74
2023/03/06 11:36:58;;;;;;;;;;;;;;;6.42;45.37;98068.44;5109178;28;20054;-74
2023/03/06 11:39:34;;;;;;;15.55;10.60;;;;;;;6.41;45.66;98065.91;5109293;28;20243;-74
2023/03/06 11:42:09;;;;;;;13.13;9.07;;;;;;;6.41;45.89;98058.00;5108629;28;20090;-74
2023/03/06 11:44:53;;;;;;;11.43;9.27;;;;;;;6.05;45.83;98001.34;5107393;28;20040;-74